sensor_id;sensor_type;location;lat;lon;timestamp;P1;durP1;ratioP1;P2;durP2;ratioP2
44664;SDS011;30382;48.802;9.388;2023-02-28T00:00:26;3.30;;;2.80;;
44664;SDS011;30382;48.802;9.388;2023-02-28T00:03:11;4.17;;;2.97;;
44664;SDS011;30382;48.802;9.388;2023-02-28T00:05:55;3.07;;;2.73;;
44664;SDS011;30382;48.802;9.388;2023-02-28T00:08:39;3.70;;;2.50;;
44664;SDS011;30382;48.802;9.388;2023-02-28T00:11:23;4.20;;;2.80;;
44664;SDS011;30382;48.802;9.388;2023-02-28T00:14:08;3.07;;;2.60;;
44664;SDS011;30382;48.802;9.388;2023-02-28T00:16:52;3.57;;;2.87;;
44664;SDS011;30382;48.802;9.388;2023-02-28T00:19:36;3.07;;;2.77;;
44664;SDS011;30382;48.802;9.388;2023-02-28T00:22:21;6.17;;;3.30;;
44664;SDS011;30382;48.802;9.388;2023-02-28T00:25:05;3.00;;;2.20;;
44664;SDS011;30382;48.802;9.388;2023-02-28T00:27:51;6.60;;;2.80;;
44664;SDS011;30382;48.802;9.388;2023-02-28T00:30:35;3.83;;;3.00;;
44664;SDS011;30382;48.802;9.388;2023-02-28T00:33:22;3.00;;;2.60;;
44664;SDS011;30382;48.802;9.388;2023-02-28T00:36:08;3.83;;;2.27;;
44664;SDS011;30382;48.802;9.388;2023-02-28T00:38:53;3.03;;;2.77;;
44664;SDS011;30382;48.802;9.388;2023-02-28T00:41:38;4.10;;;2.90;;
44664;SDS011;30382;48.802;9.388;2023-02-28T00:44:22;8.90;;;3.63;;
44664;SDS011;30382;48.802;9.388;2023-02-28T00:47:06;3.67;;;2.97;;
44664;SDS011;30382;48.802;9.388;2023-02-28T00:49:51;4.03;;;3.00;;
44664;SDS011;30382;48.802;9.388;2023-02-28T00:52:35;4.90;;;3.37;;
44664;SDS011;30382;48.802;9.388;2023-02-28T00:55:19;2.63;;;2.43;;
44664;SDS011;30382;48.802;9.388;2023-02-28T00:58:04;4.37;;;2.90;;
44664;SDS011;30382;48.802;9.388;2023-02-28T01:00:48;4.87;;;3.47;;
44664;SDS011;30382;48.802;9.388;2023-02-28T01:03:32;3.63;;;3.13;;
44664;SDS011;30382;48.802;9.388;2023-02-28T01:06:16;3.97;;;2.67;;
44664;SDS011;30382;48.802;9.388;2023-02-28T01:09:01;5.10;;;3.23;;
44664;SDS011;30382;48.802;9.388;2023-02-28T01:11:47;4.03;;;3.70;;
44664;SDS011;30382;48.802;9.388;2023-02-28T01:14:31;5.27;;;3.00;;
44664;SDS011;30382;48.802;9.388;2023-02-28T01:17:15;4.10;;;3.10;;
44664;SDS011;30382;48.802;9.388;2023-02-28T01:20:00;5.73;;;3.30;;
44664;SDS011;30382;48.802;9.388;2023-02-28T01:22:44;7.27;;;3.13;;
44664;SDS011;30382;48.802;9.388;2023-02-28T01:25:29;3.30;;;3.00;;
44664;SDS011;30382;48.802;9.388;2023-02-28T01:28:13;4.77;;;3.60;;
44664;SDS011;30382;48.802;9.388;2023-02-28T01:30:57;3.90;;;3.60;;
44664;SDS011;30382;48.802;9.388;2023-02-28T01:33:41;3.67;;;3.27;;
44664;SDS011;30382;48.802;9.388;2023-02-28T01:36:26;3.30;;;3.00;;
44664;SDS011;30382;48.802;9.388;2023-02-28T01:39:10;3.60;;;3.30;;
44664;SDS011;30382;48.802;9.388;2023-02-28T01:41:54;5.53;;;3.53;;
44664;SDS011;30382;48.802;9.388;2023-02-28T01:44:55;3.33;;;3.03;;
44664;SDS011;30382;48.802;9.388;2023-02-28T01:47:41;4.30;;;3.90;;
44664;SDS011;30382;48.802;9.388;2023-02-28T01:50:27;4.33;;;3.90;;
44664;SDS011;30382;48.802;9.388;2023-02-28T01:53:13;4.20;;;3.77;;
44664;SDS011;30382;48.802;9.388;2023-02-28T01:55:59;5.53;;;3.70;;
44664;SDS011;30382;48.802;9.388;2023-02-28T01:58:43;3.53;;;3.23;;
44664;SDS011;30382;48.802;9.388;2023-02-28T02:01:28;4.57;;;4.17;;
44664;SDS011;30382;48.802;9.388;2023-02-28T02:04:12;2.93;;;2.73;;
44664;SDS011;30382;48.802;9.388;2023-02-28T02:06:59;3.93;;;3.63;;
44664;SDS011;30382;48.802;9.388;2023-02-28T02:09:43;6.10;;;4.00;;
44664;SDS011;30382;48.802;9.388;2023-02-28T02:12:47;4.47;;;3.90;;
44664;SDS011;30382;48.802;9.388;2023-02-28T02:15:34;3.97;;;3.30;;
44664;SDS011;30382;48.802;9.388;2023-02-28T02:36:25;6.23;;;4.03;;
44664;SDS011;30382;48.802;9.388;2023-02-28T02:41:57;4.23;;;3.60;;
44664;SDS011;30382;48.802;9.388;2023-02-28T02:44:43;3.97;;;3.63;;
44664;SDS011;30382;48.802;9.388;2023-02-28T02:47:30;4.43;;;4.03;;
44664;SDS011;30382;48.802;9.388;2023-02-28T02:50:17;6.63;;;4.30;;
44664;SDS011;30382;48.802;9.388;2023-02-28T02:53:04;5.43;;;3.97;;
44664;SDS011;30382;48.802;9.388;2023-02-28T02:55:50;5.03;;;3.60;;
44664;SDS011;30382;48.802;9.388;2023-02-28T02:58:40;4.33;;;3.83;;
44664;SDS011;30382;48.802;9.388;2023-02-28T03:01:27;5.67;;;3.83;;
44664;SDS011;30382;48.802;9.388;2023-02-28T03:04:15;4.77;;;4.30;;
44664;SDS011;30382;48.802;9.388;2023-02-28T03:07:01;4.73;;;3.90;;
44664;SDS011;30382;48.802;9.388;2023-02-28T03:09:52;4.80;;;4.23;;
44664;SDS011;30382;48.802;9.388;2023-02-28T03:12:41;4.20;;;3.70;;
44664;SDS011;30382;48.802;9.388;2023-02-28T03:15:32;4.90;;;4.37;;
44664;SDS011;30382;48.802;9.388;2023-02-28T03:18:25;4.23;;;3.93;;
44664;SDS011;30382;48.802;9.388;2023-02-28T03:21:19;4.47;;;4.07;;
44664;SDS011;30382;48.802;9.388;2023-02-28T03:24:08;7.90;;;5.33;;
44664;SDS011;30382;48.802;9.388;2023-02-28T03:26:55;4.77;;;4.37;;
44664;SDS011;30382;48.802;9.388;2023-02-28T03:29:46;6.37;;;4.67;;
44664;SDS011;30382;48.802;9.388;2023-02-28T03:32:36;4.80;;;4.30;;
44664;SDS011;30382;48.802;9.388;2023-02-28T03:35:27;4.70;;;4.30;;
44664;SDS011;30382;48.802;9.388;2023-02-28T03:41:01;5.33;;;4.83;;
44664;SDS011;30382;48.802;9.388;2023-02-28T03:43:55;4.50;;;4.10;;
44664;SDS011;30382;48.802;9.388;2023-02-28T03:46:42;6.90;;;4.67;;
44664;SDS011;30382;48.802;9.388;2023-02-28T03:49:30;5.20;;;4.70;;
44664;SDS011;30382;48.802;9.388;2023-02-28T03:52:16;7.70;;;4.30;;
44664;SDS011;30382;48.802;9.388;2023-02-28T03:55:02;5.50;;;4.43;;
44664;SDS011;30382;48.802;9.388;2023-02-28T03:57:53;7.87;;;6.03;;
44664;SDS011;30382;48.802;9.388;2023-02-28T04:00:42;12.63;;;4.57;;
44664;SDS011;30382;48.802;9.388;2023-02-28T04:03:28;7.70;;;5.03;;
44664;SDS011;30382;48.802;9.388;2023-02-28T04:06:18;5.20;;;4.27;;
44664;SDS011;30382;48.802;9.388;2023-02-28T04:09:03;11.30;;;4.83;;
44664;SDS011;30382;48.802;9.388;2023-02-28T04:11:51;5.83;;;5.30;;
44664;SDS011;30382;48.802;9.388;2023-02-28T04:14:36;6.90;;;4.50;;
44664;SDS011;30382;48.802;9.388;2023-02-28T04:17:20;7.40;;;4.80;;
44664;SDS011;30382;48.802;9.388;2023-02-28T04:20:05;6.13;;;4.70;;
44664;SDS011;30382;48.802;9.388;2023-02-28T04:22:53;5.33;;;4.60;;
44664;SDS011;30382;48.802;9.388;2023-02-28T04:25:37;8.60;;;5.30;;
44664;SDS011;30382;48.802;9.388;2023-02-28T04:28:24;5.63;;;4.80;;
44664;SDS011;30382;48.802;9.388;2023-02-28T04:31:08;5.63;;;4.13;;
44664;SDS011;30382;48.802;9.388;2023-02-28T04:33:53;8.83;;;5.57;;
44664;SDS011;30382;48.802;9.388;2023-02-28T04:36:37;7.13;;;4.70;;
44664;SDS011;30382;48.802;9.388;2023-02-28T04:39:22;7.17;;;5.20;;
44664;SDS011;30382;48.802;9.388;2023-02-28T04:42:07;7.50;;;5.33;;
44664;SDS011;30382;48.802;9.388;2023-02-28T04:44:51;8.50;;;4.60;;
44664;SDS011;30382;48.802;9.388;2023-02-28T04:47:36;5.10;;;4.50;;
44664;SDS011;30382;48.802;9.388;2023-02-28T04:50:20;7.20;;;5.67;;
44664;SDS011;30382;48.802;9.388;2023-02-28T04:53:04;10.70;;;5.40;;
44664;SDS011;30382;48.802;9.388;2023-02-28T04:55:48;9.50;;;6.13;;
44664;SDS011;30382;48.802;9.388;2023-02-28T04:58:33;8.30;;;6.23;;
44664;SDS011;30382;48.802;9.388;2023-02-28T05:01:19;6.00;;;5.40;;
44664;SDS011;30382;48.802;9.388;2023-02-28T05:04:04;7.50;;;5.97;;
44664;SDS011;30382;48.802;9.388;2023-02-28T05:06:48;6.97;;;4.70;;
44664;SDS011;30382;48.802;9.388;2023-02-28T05:09:33;5.10;;;4.50;;
44664;SDS011;30382;48.802;9.388;2023-02-28T05:12:17;8.67;;;5.37;;
44664;SDS011;30382;48.802;9.388;2023-02-28T05:15:01;7.33;;;5.70;;
44664;SDS011;30382;48.802;9.388;2023-02-28T05:17:46;6.33;;;5.00;;
44664;SDS011;30382;48.802;9.388;2023-02-28T05:20:30;6.27;;;5.33;;
44664;SDS011;30382;48.802;9.388;2023-02-28T05:23:15;11.23;;;6.87;;
44664;SDS011;30382;48.802;9.388;2023-02-28T05:26:01;8.30;;;5.80;;
44664;SDS011;30382;48.802;9.388;2023-02-28T05:28:45;8.07;;;5.90;;
44664;SDS011;30382;48.802;9.388;2023-02-28T05:31:29;8.23;;;6.77;;
44664;SDS011;30382;48.802;9.388;2023-02-28T05:34:14;11.07;;;5.97;;
44664;SDS011;30382;48.802;9.388;2023-02-28T05:36:59;8.70;;;6.30;;
44664;SDS011;30382;48.802;9.388;2023-02-28T05:39:44;9.93;;;6.20;;
44664;SDS011;30382;48.802;9.388;2023-02-28T05:42:28;11.20;;;6.63;;
44664;SDS011;30382;48.802;9.388;2023-02-28T05:45:13;6.70;;;5.70;;
44664;SDS011;30382;48.802;9.388;2023-02-28T05:47:57;8.90;;;6.15;;
44664;SDS011;30382;48.802;9.388;2023-02-28T05:50:41;11.17;;;7.53;;
44664;SDS011;30382;48.802;9.388;2023-02-28T05:53:26;6.90;;;6.20;;
44664;SDS011;30382;48.802;9.388;2023-02-28T05:56:11;7.13;;;5.97;;
44664;SDS011;30382;48.802;9.388;2023-02-28T05:58:55;8.10;;;5.60;;
44664;SDS011;30382;48.802;9.388;2023-02-28T06:01:40;9.40;;;6.97;;
44664;SDS011;30382;48.802;9.388;2023-02-28T06:04:25;7.50;;;6.10;;
44664;SDS011;30382;48.802;9.388;2023-02-28T06:07:09;13.60;;;6.00;;
44664;SDS011;30382;48.802;9.388;2023-02-28T06:09:54;7.57;;;5.70;;
44664;SDS011;30382;48.802;9.388;2023-02-28T06:12:39;9.73;;;6.13;;
44664;SDS011;30382;48.802;9.388;2023-02-28T06:15:23;6.73;;;5.87;;
44664;SDS011;30382;48.802;9.388;2023-02-28T06:18:07;10.00;;;8.03;;
44664;SDS011;30382;48.802;9.388;2023-02-28T06:20:52;10.47;;;6.83;;
44664;SDS011;30382;48.802;9.388;2023-02-28T06:23:38;15.13;;;8.47;;
44664;SDS011;30382;48.802;9.388;2023-02-28T06:26:23;10.00;;;6.00;;
44664;SDS011;30382;48.802;9.388;2023-02-28T06:29:07;11.43;;;7.67;;
44664;SDS011;30382;48.802;9.388;2023-02-28T06:31:52;8.80;;;7.10;;
44664;SDS011;30382;48.802;9.388;2023-02-28T06:34:36;9.30;;;7.00;;
44664;SDS011;30382;48.802;9.388;2023-02-28T06:37:20;10.40;;;7.40;;
44664;SDS011;30382;48.802;9.388;2023-02-28T06:40:05;12.73;;;8.53;;
44664;SDS011;30382;48.802;9.388;2023-02-28T06:42:50;10.20;;;6.13;;
44664;SDS011;30382;48.802;9.388;2023-02-28T06:45:35;12.90;;;7.87;;
44664;SDS011;30382;48.802;9.388;2023-02-28T06:48:19;12.10;;;8.13;;
44664;SDS011;30382;48.802;9.388;2023-02-28T06:51:04;9.73;;;7.33;;
44664;SDS011;30382;48.802;9.388;2023-02-28T06:53:49;9.40;;;7.63;;
44664;SDS011;30382;48.802;9.388;2023-02-28T06:56:33;14.10;;;7.33;;
44664;SDS011;30382;48.802;9.388;2023-02-28T06:59:17;10.60;;;7.90;;
44664;SDS011;30382;48.802;9.388;2023-02-28T07:02:02;8.60;;;7.03;;
44664;SDS011;30382;48.802;9.388;2023-02-28T07:04:46;15.87;;;9.13;;
44664;SDS011;30382;48.802;9.388;2023-02-28T07:07:30;13.73;;;7.13;;
44664;SDS011;30382;48.802;9.388;2023-02-28T07:10:14;12.80;;;7.53;;
44664;SDS011;30382;48.802;9.388;2023-02-28T07:13:00;10.00;;;6.93;;
44664;SDS011;30382;48.802;9.388;2023-02-28T07:15:52;11.17;;;7.40;;
44664;SDS011;30382;48.802;9.388;2023-02-28T07:18:37;10.20;;;7.03;;
44664;SDS011;30382;48.802;9.388;2023-02-28T07:21:21;7.00;;;6.13;;
44664;SDS011;30382;48.802;9.388;2023-02-28T07:24:06;11.53;;;9.17;;
44664;SDS011;30382;48.802;9.388;2023-02-28T07:26:50;8.50;;;7.30;;
44664;SDS011;30382;48.802;9.388;2023-02-28T07:29:34;11.50;;;8.93;;
44664;SDS011;30382;48.802;9.388;2023-02-28T07:32:19;12.40;;;8.13;;
44664;SDS011;30382;48.802;9.388;2023-02-28T07:35:03;11.87;;;8.30;;
44664;SDS011;30382;48.802;9.388;2023-02-28T07:37:48;10.93;;;7.60;;
44664;SDS011;30382;48.802;9.388;2023-02-28T07:40:33;13.27;;;8.50;;
44664;SDS011;30382;48.802;9.388;2023-02-28T07:43:17;10.33;;;7.40;;
44664;SDS011;30382;48.802;9.388;2023-02-28T07:46:03;8.33;;;7.40;;
44664;SDS011;30382;48.802;9.388;2023-02-28T07:48:47;11.77;;;9.07;;
44664;SDS011;30382;48.802;9.388;2023-02-28T07:51:32;10.60;;;7.70;;
44664;SDS011;30382;48.802;9.388;2023-02-28T07:54:17;13.17;;;8.30;;
44664;SDS011;30382;48.802;9.388;2023-02-28T07:57:01;13.83;;;12.33;;
44664;SDS011;30382;48.802;9.388;2023-02-28T07:59:45;10.00;;;8.27;;
44664;SDS011;30382;48.802;9.388;2023-02-28T08:02:29;12.37;;;10.73;;
44664;SDS011;30382;48.802;9.388;2023-02-28T08:05:14;11.70;;;8.77;;
44664;SDS011;30382;48.802;9.388;2023-02-28T08:07:58;11.70;;;8.10;;
44664;SDS011;30382;48.802;9.388;2023-02-28T08:10:43;10.43;;;7.60;;
44664;SDS011;30382;48.802;9.388;2023-02-28T08:13:27;12.40;;;8.27;;
44664;SDS011;30382;48.802;9.388;2023-02-28T08:16:12;16.70;;;8.30;;
44664;SDS011;30382;48.802;9.388;2023-02-28T08:19:05;12.40;;;8.30;;
44664;SDS011;30382;48.802;9.388;2023-02-28T08:21:49;11.63;;;9.37;;
44664;SDS011;30382;48.802;9.388;2023-02-28T08:24:33;11.70;;;9.43;;
44664;SDS011;30382;48.802;9.388;2023-02-28T08:27:18;11.97;;;9.40;;
44664;SDS011;30382;48.802;9.388;2023-02-28T08:30:02;10.70;;;7.97;;
44664;SDS011;30382;48.802;9.388;2023-02-28T08:32:47;10.80;;;9.77;;
44664;SDS011;30382;48.802;9.388;2023-02-28T08:35:31;9.90;;;8.90;;
44664;SDS011;30382;48.802;9.388;2023-02-28T08:38:16;10.97;;;8.77;;
44664;SDS011;30382;48.802;9.388;2023-02-28T08:41:00;14.37;;;9.23;;
44664;SDS011;30382;48.802;9.388;2023-02-28T08:43:45;15.23;;;11.50;;
44664;SDS011;30382;48.802;9.388;2023-02-28T08:46:30;9.53;;;8.03;;
44664;SDS011;30382;48.802;9.388;2023-02-28T08:49:14;9.87;;;8.30;;
44664;SDS011;30382;48.802;9.388;2023-02-28T08:51:59;17.43;;;9.77;;
44664;SDS011;30382;48.802;9.388;2023-02-28T08:54:44;10.73;;;8.40;;
44664;SDS011;30382;48.802;9.388;2023-02-28T08:57:28;13.13;;;10.10;;
44664;SDS011;30382;48.802;9.388;2023-02-28T09:00:12;10.87;;;8.20;;
44664;SDS011;30382;48.802;9.388;2023-02-28T09:02:58;12.60;;;9.80;;
44664;SDS011;30382;48.802;9.388;2023-02-28T09:05:51;14.43;;;9.67;;
44664;SDS011;30382;48.802;9.388;2023-02-28T09:08:35;11.93;;;9.00;;
44664;SDS011;30382;48.802;9.388;2023-02-28T09:11:20;15.67;;;9.93;;
44664;SDS011;30382;48.802;9.388;2023-02-28T09:14:04;21.47;;;11.27;;
44664;SDS011;30382;48.802;9.388;2023-02-28T09:16:50;11.63;;;9.17;;
44664;SDS011;30382;48.802;9.388;2023-02-28T09:19:34;19.67;;;10.30;;
44664;SDS011;30382;48.802;9.388;2023-02-28T09:22:18;12.90;;;9.13;;
44664;SDS011;30382;48.802;9.388;2023-02-28T09:25:03;15.53;;;9.03;;
44664;SDS011;30382;48.802;9.388;2023-02-28T09:27:47;14.13;;;9.10;;
44664;SDS011;30382;48.802;9.388;2023-02-28T09:30:32;13.80;;;9.80;;
44664;SDS011;30382;48.802;9.388;2023-02-28T09:33:16;13.13;;;10.20;;
44664;SDS011;30382;48.802;9.388;2023-02-28T09:36:02;10.47;;;7.67;;
44664;SDS011;30382;48.802;9.388;2023-02-28T09:38:47;10.83;;;8.70;;
44664;SDS011;30382;48.802;9.388;2023-02-28T09:41:40;11.93;;;8.87;;
44664;SDS011;30382;48.802;9.388;2023-02-28T09:44:31;19.50;;;9.30;;
44664;SDS011;30382;48.802;9.388;2023-02-28T09:47:29;10.60;;;8.43;;
44664;SDS011;30382;48.802;9.388;2023-02-28T09:50:23;13.23;;;9.03;;
44664;SDS011;30382;48.802;9.388;2023-02-28T09:53:26;9.07;;;7.80;;
44664;SDS011;30382;48.802;9.388;2023-02-28T09:56:13;12.00;;;8.80;;
44664;SDS011;30382;48.802;9.388;2023-02-28T09:59:01;8.53;;;7.70;;
44664;SDS011;30382;48.802;9.388;2023-02-28T10:01:50;14.47;;;8.93;;
44664;SDS011;30382;48.802;9.388;2023-02-28T10:07:23;11.30;;;8.43;;
44664;SDS011;30382;48.802;9.388;2023-02-28T10:10:23;11.80;;;9.10;;
44664;SDS011;30382;48.802;9.388;2023-02-28T10:13:20;12.23;;;9.30;;
44664;SDS011;30382;48.802;9.388;2023-02-28T10:16:07;9.83;;;8.73;;
44664;SDS011;30382;48.802;9.388;2023-02-28T10:18:58;13.20;;;9.77;;
44664;SDS011;30382;48.802;9.388;2023-02-28T10:21:48;10.70;;;8.30;;
44664;SDS011;30382;48.802;9.388;2023-02-28T10:24:35;12.47;;;8.83;;
44664;SDS011;30382;48.802;9.388;2023-02-28T10:27:25;11.40;;;9.23;;
44664;SDS011;30382;48.802;9.388;2023-02-28T10:30:10;14.90;;;10.00;;
44664;SDS011;30382;48.802;9.388;2023-02-28T10:32:54;13.23;;;8.57;;
44664;SDS011;30382;48.802;9.388;2023-02-28T10:35:39;10.60;;;8.57;;
44664;SDS011;30382;48.802;9.388;2023-02-28T10:38:25;10.93;;;8.73;;
44664;SDS011;30382;48.802;9.388;2023-02-28T10:41:31;9.10;;;8.17;;
44664;SDS011;30382;48.802;9.388;2023-02-28T10:46:59;10.53;;;9.37;;
44664;SDS011;30382;48.802;9.388;2023-02-28T10:49:47;10.70;;;8.30;;
44664;SDS011;30382;48.802;9.388;2023-02-28T10:52:33;11.33;;;9.30;;
44664;SDS011;30382;48.802;9.388;2023-02-28T10:55:20;14.00;;;10.47;;
44664;SDS011;30382;48.802;9.388;2023-02-28T10:58:20;11.07;;;9.30;;
44664;SDS011;30382;48.802;9.388;2023-02-28T11:01:10;15.03;;;9.23;;
44664;SDS011;30382;48.802;9.388;2023-02-28T11:03:56;11.33;;;9.03;;
44664;SDS011;30382;48.802;9.388;2023-02-28T11:06:43;14.63;;;13.00;;
44664;SDS011;30382;48.802;9.388;2023-02-28T11:09:30;11.17;;;9.27;;
44664;SDS011;30382;48.802;9.388;2023-02-28T11:12:22;13.93;;;10.17;;
44664;SDS011;30382;48.802;9.388;2023-02-28T11:18:24;13.05;;;11.15;;
44664;SDS011;30382;48.802;9.388;2023-02-28T12:46:05;17.90;;;10.07;;
44664;SDS011;30382;48.802;9.388;2023-02-28T12:54:54;12.60;;;10.10;;
44664;SDS011;30382;48.802;9.388;2023-02-28T13:25:57;10.43;;;9.40;;
44664;SDS011;30382;48.802;9.388;2023-02-28T13:37:36;10.70;;;9.60;;
44664;SDS011;30382;48.802;9.388;2023-02-28T16:59:59;12.17;;;10.43;;
44664;SDS011;30382;48.802;9.388;2023-02-28T17:02:44;12.60;;;10.37;;
44664;SDS011;30382;48.802;9.388;2023-02-28T17:05:29;12.33;;;9.20;;
44664;SDS011;30382;48.802;9.388;2023-02-28T17:08:17;12.47;;;10.97;;
44664;SDS011;30382;48.802;9.388;2023-02-28T17:11:01;16.10;;;12.77;;
44664;SDS011;30382;48.802;9.388;2023-02-28T17:16:35;18.47;;;10.10;;
44664;SDS011;30382;48.802;9.388;2023-02-28T17:19:20;16.07;;;9.57;;
44664;SDS011;30382;48.802;9.388;2023-02-28T17:22:04;11.60;;;9.90;;
44664;SDS011;30382;48.802;9.388;2023-02-28T17:24:49;15.63;;;11.40;;
44664;SDS011;30382;48.802;9.388;2023-02-28T17:27:33;11.90;;;9.80;;
44664;SDS011;30382;48.802;9.388;2023-02-28T17:30:20;13.03;;;10.47;;
44664;SDS011;30382;48.802;9.388;2023-02-28T17:33:04;17.30;;;9.60;;
44664;SDS011;30382;48.802;9.388;2023-02-28T17:35:49;17.80;;;10.23;;
44664;SDS011;30382;48.802;9.388;2023-02-28T17:38:33;17.67;;;10.23;;
44664;SDS011;30382;48.802;9.388;2023-02-28T17:41:17;14.67;;;11.00;;
44664;SDS011;30382;48.802;9.388;2023-02-28T17:44:02;14.87;;;10.50;;
44664;SDS011;30382;48.802;9.388;2023-02-28T17:46:46;13.40;;;10.20;;
44664;SDS011;30382;48.802;9.388;2023-02-28T17:49:30;13.30;;;10.80;;
44664;SDS011;30382;48.802;9.388;2023-02-28T17:52:15;15.97;;;11.77;;
44664;SDS011;30382;48.802;9.388;2023-02-28T17:54:59;17.60;;;12.80;;
44664;SDS011;30382;48.802;9.388;2023-02-28T17:57:43;19.13;;;12.83;;
44664;SDS011;30382;48.802;9.388;2023-02-28T18:00:28;23.20;;;14.57;;
44664;SDS011;30382;48.802;9.388;2023-02-28T18:03:13;23.70;;;16.77;;
44664;SDS011;30382;48.802;9.388;2023-02-28T18:05:58;30.43;;;20.50;;
44664;SDS011;30382;48.802;9.388;2023-02-28T18:08:42;26.97;;;18.30;;
44664;SDS011;30382;48.802;9.388;2023-02-28T18:11:26;22.83;;;18.50;;
44664;SDS011;30382;48.802;9.388;2023-02-28T18:14:26;21.87;;;17.03;;
44664;SDS011;30382;48.802;9.388;2023-02-28T18:17:11;27.90;;;14.70;;
44664;SDS011;30382;48.802;9.388;2023-02-28T18:19:56;20.30;;;14.97;;
44664;SDS011;30382;48.802;9.388;2023-02-28T18:22:41;20.27;;;13.83;;
44664;SDS011;30382;48.802;9.388;2023-02-28T18:25:25;19.47;;;14.43;;
44664;SDS011;30382;48.802;9.388;2023-02-28T18:28:09;16.93;;;12.80;;
44664;SDS011;30382;48.802;9.388;2023-02-28T18:30:54;19.47;;;13.40;;
44664;SDS011;30382;48.802;9.388;2023-02-28T18:33:38;16.97;;;12.50;;
44664;SDS011;30382;48.802;9.388;2023-02-28T18:36:23;16.70;;;12.13;;
44664;SDS011;30382;48.802;9.388;2023-02-28T18:39:08;19.50;;;16.70;;
44664;SDS011;30382;48.802;9.388;2023-02-28T18:41:52;18.60;;;13.50;;
44664;SDS011;30382;48.802;9.388;2023-02-28T18:44:36;22.83;;;15.50;;
44664;SDS011;30382;48.802;9.388;2023-02-28T18:47:20;19.67;;;14.63;;
44664;SDS011;30382;48.802;9.388;2023-02-28T18:50:05;17.80;;;13.80;;
44664;SDS011;30382;48.802;9.388;2023-02-28T18:52:49;16.83;;;13.30;;
44664;SDS011;30382;48.802;9.388;2023-02-28T18:55:34;20.57;;;13.40;;
44664;SDS011;30382;48.802;9.388;2023-02-28T18:58:18;26.70;;;14.30;;
44664;SDS011;30382;48.802;9.388;2023-02-28T19:01:03;25.43;;;15.60;;
44664;SDS011;30382;48.802;9.388;2023-02-28T19:03:57;23.83;;;16.83;;
44664;SDS011;30382;48.802;9.388;2023-02-28T19:06:43;32.90;;;18.03;;
44664;SDS011;30382;48.802;9.388;2023-02-28T19:09:28;32.60;;;21.93;;
44664;SDS011;30382;48.802;9.388;2023-02-28T19:12:12;82.27;;;73.63;;
44664;SDS011;30382;48.802;9.388;2023-02-28T19:14:57;18.93;;;14.20;;
44664;SDS011;30382;48.802;9.388;2023-02-28T19:17:41;21.60;;;13.87;;
44664;SDS011;30382;48.802;9.388;2023-02-28T19:20:25;19.53;;;13.87;;
44664;SDS011;30382;48.802;9.388;2023-02-28T19:23:10;29.57;;;15.93;;
44664;SDS011;30382;48.802;9.388;2023-02-28T19:25:55;22.13;;;17.53;;
44664;SDS011;30382;48.802;9.388;2023-02-28T19:28:40;17.17;;;12.30;;
44664;SDS011;30382;48.802;9.388;2023-02-28T19:31:25;16.07;;;12.00;;
44664;SDS011;30382;48.802;9.388;2023-02-28T19:34:09;18.23;;;12.43;;
44664;SDS011;30382;48.802;9.388;2023-02-28T19:36:53;16.23;;;12.17;;
44664;SDS011;30382;48.802;9.388;2023-02-28T19:39:38;18.33;;;13.60;;
44664;SDS011;30382;48.802;9.388;2023-02-28T19:42:25;18.63;;;12.20;;
44664;SDS011;30382;48.802;9.388;2023-02-28T19:45:15;19.33;;;13.60;;
44664;SDS011;30382;48.802;9.388;2023-02-28T19:48:00;21.57;;;15.00;;
44664;SDS011;30382;48.802;9.388;2023-02-28T19:50:45;19.60;;;13.90;;
44664;SDS011;30382;48.802;9.388;2023-02-28T19:53:29;19.37;;;13.70;;
44664;SDS011;30382;48.802;9.388;2023-02-28T19:56:14;18.37;;;14.50;;
44664;SDS011;30382;48.802;9.388;2023-02-28T19:58:58;19.83;;;13.47;;
44664;SDS011;30382;48.802;9.388;2023-02-28T20:01:42;18.30;;;13.87;;
44664;SDS011;30382;48.802;9.388;2023-02-28T20:04:26;21.33;;;14.37;;
44664;SDS011;30382;48.802;9.388;2023-02-28T20:07:11;14.70;;;13.17;;
44664;SDS011;30382;48.802;9.388;2023-02-28T20:09:55;16.23;;;13.03;;
44664;SDS011;30382;48.802;9.388;2023-02-28T20:12:39;19.40;;;16.30;;
44664;SDS011;30382;48.802;9.388;2023-02-28T20:15:24;22.10;;;14.00;;
44664;SDS011;30382;48.802;9.388;2023-02-28T20:18:08;21.53;;;17.20;;
44664;SDS011;30382;48.802;9.388;2023-02-28T20:20:53;25.77;;;18.67;;
44664;SDS011;30382;48.802;9.388;2023-02-28T20:23:38;24.90;;;16.90;;
44664;SDS011;30382;48.802;9.388;2023-02-28T20:26:23;26.90;;;15.40;;
44664;SDS011;30382;48.802;9.388;2023-02-28T20:29:07;20.87;;;15.00;;
44664;SDS011;30382;48.802;9.388;2023-02-28T20:31:52;23.30;;;16.43;;
44664;SDS011;30382;48.802;9.388;2023-02-28T20:34:36;25.67;;;18.70;;
44664;SDS011;30382;48.802;9.388;2023-02-28T20:37:20;22.97;;;16.60;;
44664;SDS011;30382;48.802;9.388;2023-02-28T20:40:05;21.90;;;15.40;;
44664;SDS011;30382;48.802;9.388;2023-02-28T20:42:50;22.50;;;14.90;;
44664;SDS011;30382;48.802;9.388;2023-02-28T20:45:34;29.27;;;17.70;;
44664;SDS011;30382;48.802;9.388;2023-02-28T20:48:19;36.60;;;25.03;;
44664;SDS011;30382;48.802;9.388;2023-02-28T20:51:04;40.73;;;26.53;;
44664;SDS011;30382;48.802;9.388;2023-02-28T20:53:48;35.57;;;24.03;;
44664;SDS011;30382;48.802;9.388;2023-02-28T20:56:33;22.50;;;16.80;;
44664;SDS011;30382;48.802;9.388;2023-02-28T20:59:17;28.30;;;18.90;;
44664;SDS011;30382;48.802;9.388;2023-02-28T21:02:04;30.23;;;20.40;;
44664;SDS011;30382;48.802;9.388;2023-02-28T21:04:48;22.93;;;17.43;;
44664;SDS011;30382;48.802;9.388;2023-02-28T21:07:32;27.13;;;21.47;;
44664;SDS011;30382;48.802;9.388;2023-02-28T21:10:17;25.47;;;19.00;;
44664;SDS011;30382;48.802;9.388;2023-02-28T21:13:01;23.60;;;17.37;;
44664;SDS011;30382;48.802;9.388;2023-02-28T21:15:46;19.60;;;15.10;;
44664;SDS011;30382;48.802;9.388;2023-02-28T21:18:31;18.47;;;13.57;;
44664;SDS011;30382;48.802;9.388;2023-02-28T21:21:17;17.83;;;12.07;;
44664;SDS011;30382;48.802;9.388;2023-02-28T21:24:03;19.17;;;12.30;;
44664;SDS011;30382;48.802;9.388;2023-02-28T21:26:47;18.40;;;13.47;;
44664;SDS011;30382;48.802;9.388;2023-02-28T21:29:32;18.10;;;13.67;;
44664;SDS011;30382;48.802;9.388;2023-02-28T21:32:16;23.50;;;15.50;;
44664;SDS011;30382;48.802;9.388;2023-02-28T21:35:00;22.57;;;14.97;;
44664;SDS011;30382;48.802;9.388;2023-02-28T21:37:45;20.30;;;15.17;;
44664;SDS011;30382;48.802;9.388;2023-02-28T21:40:29;25.80;;;15.60;;
44664;SDS011;30382;48.802;9.388;2023-02-28T21:43:13;16.93;;;12.97;;
44664;SDS011;30382;48.802;9.388;2023-02-28T21:46:01;22.73;;;14.73;;
44664;SDS011;30382;48.802;9.388;2023-02-28T21:48:46;14.73;;;13.03;;
44664;SDS011;30382;48.802;9.388;2023-02-28T21:51:33;20.70;;;14.63;;
44664;SDS011;30382;48.802;9.388;2023-02-28T21:54:18;16.20;;;12.20;;
44664;SDS011;30382;48.802;9.388;2023-02-28T21:57:02;17.87;;;13.73;;
44664;SDS011;30382;48.802;9.388;2023-02-28T21:59:46;18.70;;;13.30;;
44664;SDS011;30382;48.802;9.388;2023-02-28T22:02:30;28.47;;;16.50;;
44664;SDS011;30382;48.802;9.388;2023-02-28T22:05:15;31.97;;;18.53;;
44664;SDS011;30382;48.802;9.388;2023-02-28T22:07:59;22.90;;;14.37;;
44664;SDS011;30382;48.802;9.388;2023-02-28T22:10:44;18.63;;;14.00;;
44664;SDS011;30382;48.802;9.388;2023-02-28T22:13:28;23.93;;;15.17;;
44664;SDS011;30382;48.802;9.388;2023-02-28T22:16:16;30.93;;;15.70;;
44664;SDS011;30382;48.802;9.388;2023-02-28T22:19:01;27.87;;;17.30;;
44664;SDS011;30382;48.802;9.388;2023-02-28T22:21:48;27.67;;;14.80;;
44664;SDS011;30382;48.802;9.388;2023-02-28T22:24:33;17.83;;;13.23;;
44664;SDS011;30382;48.802;9.388;2023-02-28T22:27:17;19.20;;;13.07;;